Time;durP1;ratioP1;P1;durP2;ratioP2;P2;SDS_P1;SDS_P2;PMS_P1;PMS_P2;Temp;Humidity;BMP_temperature;BMP_pressure;BME280_temperature;BME280_humidity;BME280_pressure;Samples;Min_cycle;Max_cycle;Signal;HPM_P1;HPM_P2
2023/05/30 00:00:26;;;;;;;20.47;4.03;;;;;;;;;;5107448;28;20558;-61
2023/05/30 00:02:52;;;;;;;12.10;2.93;;;;;;;;;;5111607;28;20478;-62
2023/05/30 00:05:18;;;;;;;9.50;4.13;;;;;;;;;;5102419;28;20443;-61
2023/05/30 00:07:45;;;;;;;10.13;4.33;;;;;;;;;;5100362;28;20530;-61
2023/05/30 00:10:12;;;;;;;15.30;3.77;;;;;;;;;;5100328;28;20479;-62
2023/05/30 00:12:40;;;;;;;10.70;3.93;;;;;;;;;;5107000;28;20447;-61
2023/05/30 00:15:07;;;;;;;17.43;3.87;;;;;;;;;;5100106;28;20451;-62
2023/05/30 00:17:35;;;;;;;13.10;3.83;;;;;;;;;;5106762;28;20447;-62
2023/05/30 00:20:02;;;;;;;15.10;4.00;;;;;;;;;;5101362;28;20486;-62
2023/05/30 00:22:29;;;;;;;14.27;4.10;;;;;;;;;;5104114;28;20479;-62
2023/05/30 00:24:56;;;;;;;12.10;4.93;;;;;;;;;;5097904;28;20463;-62
2023/05/30 00:27:22;;;;;;;11.67;4.37;;;;;;;;;;5102947;28;20479;-63
2023/05/30 00:29:50;;;;;;;10.30;4.40;;;;;;;;;;5102203;28;20510;-63
2023/05/30 00:32:17;;;;;;;15.77;3.40;;;;;;;;;;5103566;28;20546;-63
2023/05/30 00:34:45;;;;;;;9.57;3.73;;;;;;;;;;5107262;28;20530;-63
2023/05/30 00:37:11;;;;;;;13.77;3.57;;;;;;;;;;5103155;28;20489;-62
2023/05/30 00:39:38;;;;;;;20.37;3.93;;;;;;;;;;5099736;28;20475;-62
2023/05/30 00:42:05;;;;;;;17.83;4.60;;;;;;;;;;5102569;28;20485;-62
2023/05/30 00:44:31;;;;;;;17.30;4.80;;;;;;;;;;5105161;28;20470;-61
2023/05/30 00:46:59;;;;;;;9.70;3.43;;;;;;;;;;5096741;28;20512;-62
2023/05/30 00:49:26;;;;;;;13.20;3.60;;;;;;;;;;5102958;28;20466;-61
2023/05/30 00:51:52;;;;;;;18.90;5.10;;;;;;;;;;5104231;28;20517;-61
2023/05/30 00:54:19;;;;;;;11.20;4.00;;;;;;;;;;5098697;28;20527;-62
2023/05/30 00:56:45;;;;;;;10.53;4.00;;;;;;;;;;5101666;28;20518;-61
2023/05/30 00:59:12;;;;;;;13.00;3.47;;;;;;;;;;5099999;28;20478;-62
2023/05/30 01:01:38;;;;;;;16.37;4.63;;;;;;;;;;5099878;28;20509;-61
2023/05/30 01:04:08;;;;;;;13.77;4.10;;;;;;;;;;5104520;28;20505;-62
2023/05/30 01:06:37;;;;;;;17.43;4.53;;;;;;;;;;5099377;28;20475;-61
2023/05/30 01:09:04;;;;;;;13.07;4.00;;;;;;;;;;5101116;28;20450;-61
2023/05/30 01:11:35;;;;;;;16.03;4.13;;;;;;;;;;5099504;28;20510;-61
2023/05/30 01:14:07;;;;;;;16.23;5.47;;;;;;;;;;5104000;28;20454;-61
2023/05/30 01:16:36;;;;;;;10.37;4.87;;;;;;;;;;5099295;28;20482;-62
2023/05/30 01:19:12;;;;;;;10.00;3.50;;;;;;;;;;5102090;28;20545;-61
2023/05/30 01:21:39;;;;;;;15.90;3.87;;;;;;;;;;5099747;28;20474;-61
2023/05/30 01:24:15;;;;;;;14.67;5.80;;;;;;;;;;5100590;28;20506;-61
2023/05/30 01:26:53;;;;;;;12.63;3.90;;;;;;;;;;5096466;28;20473;-61
2023/05/30 01:29:23;;;;;;;11.03;3.40;;;;;;;;;;5100811;28;20541;-62
2023/05/30 01:31:49;;;;;;;6.87;3.47;;;;;;;;;;5099518;28;20485;-61
2023/05/30 01:34:16;;;;;;;9.23;3.87;;;;;;;;;;5104593;28;20466;-61
2023/05/30 01:36:43;;;;;;;12.13;5.37;;;;;;;;;;5099662;28;20784;-61
2023/05/30 01:39:09;;;;;;;14.90;4.30;;;;;;;;;;5100052;28;20450;-61
2023/05/30 01:41:39;;;;;;;12.90;4.20;;;;;;;;;;5102662;28;20467;-61
2023/05/30 01:44:08;;;;;;;18.97;4.07;;;;;;;;;;5101044;28;20474;-61
2023/05/30 01:46:38;;;;;;;14.13;3.87;;;;;;;;;;5099893;28;20514;-61
2023/05/30 01:49:11;;;;;;;17.03;4.53;;;;;;;;;;5109656;28;20461;-62
2023/05/30 01:51:41;;;;;;;13.37;3.60;;;;;;;;;;5104881;28;20513;-63
2023/05/30 01:54:08;;;;;;;17.23;3.83;;;;;;;;;;5105789;28;20482;-61
2023/05/30 01:56:35;;;;;;;18.40;4.30;;;;;;;;;;5103148;28;20554;-61
2023/05/30 01:59:03;;;;;;;10.40;4.77;;;;;;;;;;5108245;28;20553;-61
2023/05/30 02:01:30;;;;;;;10.60;3.70;;;;;;;;;;5106588;28;21089;-62
2023/05/30 02:03:58;;;;;;;14.50;3.80;;;;;;;;;;5106430;28;20471;-61
2023/05/30 02:06:24;;;;;;;8.63;4.07;;;;;;;;;;5109863;28;20473;-61
2023/05/30 02:08:50;;;;;;;9.90;3.70;;;;;;;;;;5105119;28;20463;-60
2023/05/30 02:11:17;;;;;;;14.70;4.07;;;;;;;;;;5104382;28;20535;-61
2023/05/30 02:13:44;;;;;;;12.90;4.33;;;;;;;;;;5104409;28;20510;-62
2023/05/30 02:16:10;;;;;;;14.40;3.63;;;;;;;;;;5099298;28;20563;-61
2023/05/30 02:18:40;;;;;;;13.93;3.93;;;;;;;;;;5105038;28;21246;-61
2023/05/30 02:21:08;;;;;;;16.30;5.10;;;;;;;;;;5102802;28;20483;-62
2023/05/30 02:23:35;;;;;;;19.33;4.33;;;;;;;;;;5102932;28;20485;-62
2023/05/30 02:26:01;;;;;;;14.20;4.03;;;;;;;;;;5105241;28;20478;-62
2023/05/30 02:28:28;;;;;;;14.60;3.60;;;;;;;;;;5102516;28;20481;-62
2023/05/30 02:30:54;;;;;;;9.40;4.27;;;;;;;;;;5101247;28;20510;-63
2023/05/30 02:33:20;;;;;;;11.13;4.43;;;;;;;;;;5102763;28;20502;-62
2023/05/30 02:35:47;;;;;;;15.20;4.00;;;;;;;;;;5103396;28;20478;-62
2023/05/30 02:38:14;;;;;;;10.63;4.10;;;;;;;;;;5104623;28;20479;-61
2023/05/30 02:40:41;;;;;;;9.80;3.60;;;;;;;;;;5102647;28;20526;-62
2023/05/30 02:43:07;;;;;;;13.70;4.00;;;;;;;;;;5102721;28;20538;-62
2023/05/30 02:45:33;;;;;;;12.43;4.80;;;;;;;;;;5107705;28;20557;-62
2023/05/30 02:48:00;;;;;;;12.33;4.47;;;;;;;;;;5105398;28;20931;-62
2023/05/30 02:50:26;;;;;;;11.50;3.57;;;;;;;;;;5101707;28;20520;-61
2023/05/30 02:52:53;;;;;;;8.73;3.50;;;;;;;;;;5103076;28;20530;-61
2023/05/30 02:55:20;;;;;;;12.23;5.07;;;;;;;;;;5101215;28;20506;-61
2023/05/30 02:57:47;;;;;;;12.07;3.37;;;;;;;;;;5106652;28;20504;-62
2023/05/30 03:00:14;;;;;;;10.30;3.57;;;;;;;;;;5107803;28;20529;-62
2023/05/30 03:02:41;;;;;;;16.17;4.10;;;;;;;;;;5104075;28;20487;-62
2023/05/30 03:05:08;;;;;;;12.03;4.50;;;;;;;;;;5104954;28;20910;-62
2023/05/30 03:07:35;;;;;;;14.83;3.93;;;;;;;;;;5102913;28;20515;-63
2023/05/30 03:10:01;;;;;;;22.50;4.93;;;;;;;;;;5104928;28;20455;-63
2023/05/30 03:12:29;;;;;;;11.03;3.33;;;;;;;;;;5102211;28;20541;-63
2023/05/30 03:14:55;;;;;;;14.93;4.03;;;;;;;;;;5102320;28;20535;-63
2023/05/30 03:17:22;;;;;;;11.03;3.87;;;;;;;;;;5103868;28;20485;-63
2023/05/30 03:19:48;;;;;;;9.67;4.37;;;;;;;;;;5103899;28;20471;-63
2023/05/30 03:22:15;;;;;;;16.27;4.10;;;;;;;;;;5106386;28;20510;-60
2023/05/30 03:24:41;;;;;;;8.73;4.20;;;;;;;;;;5103524;28;20941;-62
2023/05/30 03:27:07;;;;;;;13.57;4.90;;;;;;;;;;5101322;28;20479;-62
2023/05/30 03:29:35;;;;;;;9.73;3.80;;;;;;;;;;5102479;28;20663;-64
2023/05/30 03:32:02;;;;;;;11.70;3.93;;;;;;;;;;5104082;28;20577;-65
2023/05/30 03:34:30;;;;;;;9.80;3.70;;;;;;;;;;5109846;28;20471;-63
2023/05/30 03:36:57;;;;;;;9.30;3.80;;;;;;;;;;5105601;28;20711;-65
2023/05/30 03:39:23;;;;;;;13.83;4.70;;;;;;;;;;5103430;28;20459;-63
2023/05/30 03:41:50;;;;;;;9.10;3.70;;;;;;;;;;5103342;28;20593;-64
2023/05/30 03:44:16;;;;;;;12.17;4.10;;;;;;;;;;5105240;28;20565;-65
2023/05/30 03:46:44;;;;;;;10.10;3.63;;;;;;;;;;5103514;28;20557;-65
2023/05/30 03:49:10;;;;;;;10.00;3.63;;;;;;;;;;5103237;28;20472;-63
2023/05/30 03:51:37;;;;;;;11.37;4.17;;;;;;;;;;5104378;28;20497;-63
2023/05/30 03:54:03;;;;;;;11.13;3.63;;;;;;;;;;5102976;28;20451;-68
2023/05/30 03:56:30;;;;;;;10.30;4.27;;;;;;;;;;5102572;28;20550;-65
2023/05/30 03:58:56;;;;;;;16.10;4.70;;;;;;;;;;5107340;28;20458;-65
2023/05/30 04:01:23;;;;;;;9.10;3.93;;;;;;;;;;5100404;28;20554;-65
2023/05/30 04:03:50;;;;;;;11.60;4.00;;;;;;;;;;5108487;28;20474;-66
2023/05/30 04:06:17;;;;;;;14.27;4.20;;;;;;;;;;5102417;28;20550;-66
2023/05/30 04:08:43;;;;;;;10.80;3.83;;;;;;;;;;5105358;28;20546;-66
2023/05/30 04:11:10;;;;;;;15.10;4.70;;;;;;;;;;5098221;28;20977;-65
2023/05/30 04:13:36;;;;;;;9.47;4.60;;;;;;;;;;5103932;28;20446;-65
2023/05/30 04:16:03;;;;;;;11.90;3.80;;;;;;;;;;5107730;28;20623;-64
2023/05/30 04:18:29;;;;;;;14.77;4.40;;;;;;;;;;5109760;28;21042;-65
2023/05/30 04:20:57;;;;;;;11.53;4.50;;;;;;;;;;5104811;28;20483;-67
2023/05/30 04:23:23;;;;;;;12.23;5.70;;;;;;;;;;5100271;28;20578;-65
2023/05/30 04:25:49;;;;;;;8.77;4.27;;;;;;;;;;5102034;28;20486;-65
2023/05/30 04:28:17;;;;;;;11.60;4.30;;;;;;;;;;5103848;28;20486;-65
2023/05/30 04:30:48;;;;;;;11.97;4.87;;;;;;;;;;5109280;28;20535;-64
2023/05/30 04:33:14;;;;;;;11.17;3.43;;;;;;;;;;5105367;28;20471;-66
2023/05/30 04:35:41;;;;;;;18.30;4.23;;;;;;;;;;5108866;28;20494;-66
2023/05/30 04:38:09;;;;;;;19.40;3.97;;;;;;;;;;5101829;28;20486;-63
2023/05/30 04:40:36;;;;;;;9.10;4.70;;;;;;;;;;5100974;28;20454;-64
2023/05/30 04:43:02;;;;;;;13.10;4.13;;;;;;;;;;5096107;28;20506;-60
2023/05/30 04:45:31;;;;;;;13.60;4.57;;;;;;;;;;5109199;28;20554;-62
2023/05/30 04:47:57;;;;;;;18.30;5.10;;;;;;;;;;5098982;28;20461;-59
2023/05/30 04:50:26;;;;;;;11.37;6.43;;;;;;;;;;5098256;28;20559;-59
2023/05/30 04:52:52;;;;;;;14.23;4.30;;;;;;;;;;5100211;28;20500;-60
2023/05/30 04:55:20;;;;;;;8.23;4.63;;;;;;;;;;5102313;28;20489;-61
2023/05/30 04:57:47;;;;;;;7.70;4.53;;;;;;;;;;5104790;28;20551;-59
2023/05/30 05:00:14;;;;;;;10.63;4.60;;;;;;;;;;5100864;28;20483;-61
2023/05/30 05:02:40;;;;;;;20.20;5.73;;;;;;;;;;5099841;28;20455;-60
2023/05/30 05:05:07;;;;;;;9.10;4.47;;;;;;;;;;5105502;28;20521;-60
2023/05/30 05:07:34;;;;;;;19.43;6.47;;;;;;;;;;5098724;28;20502;-62
2023/05/30 05:10:00;;;;;;;12.40;4.77;;;;;;;;;;5101653;28;20466;-59
2023/05/30 05:12:28;;;;;;;15.37;5.03;;;;;;;;;;5096828;28;21086;-61
2023/05/30 05:14:55;;;;;;;16.13;5.43;;;;;;;;;;5100549;28;20528;-63
2023/05/30 05:17:21;;;;;;;10.10;4.77;;;;;;;;;;5101419;28;20569;-62
2023/05/30 05:19:48;;;;;;;14.93;5.13;;;;;;;;;;5107499;28;20541;-62
2023/05/30 05:22:14;;;;;;;10.33;4.93;;;;;;;;;;5105661;28;20534;-63
2023/05/30 05:24:40;;;;;;;14.20;5.40;;;;;;;;;;5094010;28;20558;-61
2023/05/30 05:27:07;;;;;;;7.10;4.63;;;;;;;;;;5110485;28;20512;-60
2023/05/30 05:29:35;;;;;;;14.90;4.90;;;;;;;;;;5109622;28;20477;-60
2023/05/30 05:32:01;;;;;;;14.67;5.13;;;;;;;;;;5114044;28;20494;-63
2023/05/30 05:34:28;;;;;;;15.93;5.00;;;;;;;;;;5100854;28;20538;-62
2023/05/30 05:36:54;;;;;;;14.07;6.10;;;;;;;;;;5106364;28;20475;-61
2023/05/30 05:39:20;;;;;;;16.50;5.53;;;;;;;;;;5101165;28;20522;-61
2023/05/30 05:41:47;;;;;;;17.17;5.77;;;;;;;;;;5106315;28;20463;-60
2023/05/30 05:44:13;;;;;;;13.20;5.20;;;;;;;;;;5101057;28;21387;-65
2023/05/30 05:46:41;;;;;;;16.43;6.20;;;;;;;;;;5097985;28;20542;-66
2023/05/30 05:49:07;;;;;;;11.93;5.90;;;;;;;;;;5102250;28;20479;-59
2023/05/30 05:51:34;;;;;;;11.13;5.70;;;;;;;;;;5103986;28;20988;-59
2023/05/30 05:54:00;;;;;;;16.03;6.27;;;;;;;;;;5098576;28;21030;-61
2023/05/30 05:56:27;;;;;;;14.77;5.67;;;;;;;;;;5104121;28;20562;-62
2023/05/30 05:58:53;;;;;;;20.60;6.23;;;;;;;;;;5099802;28;20454;-60
2023/05/30 06:01:19;;;;;;;15.23;5.70;;;;;;;;;;5103734;28;20569;-64
2023/05/30 06:03:57;;;;;;;21.87;6.50;;;;;;;;;;5101398;28;20550;-60
2023/05/30 06:06:24;;;;;;;16.70;6.47;;;;;;;;;;5100846;28;20478;-61
2023/05/30 06:08:50;;;;;;;15.80;6.33;;;;;;;;;;5100266;28;20490;-62
2023/05/30 06:11:17;;;;;;;10.43;6.10;;;;;;;;;;5104944;28;20811;-61
2023/05/30 06:13:43;;;;;;;14.87;6.27;;;;;;;;;;5112676;28;20534;-61
2023/05/30 06:16:09;;;;;;;10.53;5.53;;;;;;;;;;5110694;28;20485;-63
2023/05/30 06:18:36;;;;;;;14.40;6.40;;;;;;;;;;5104615;28;20477;-62
2023/05/30 06:21:04;;;;;;;14.97;6.90;;;;;;;;;;5103035;28;21022;-63
2023/05/30 06:23:30;;;;;;;18.13;6.00;;;;;;;;;;5111975;28;20450;-62
2023/05/30 06:25:57;;;;;;;13.47;6.30;;;;;;;;;;5097762;28;20603;-60
2023/05/30 06:28:23;;;;;;;19.17;6.60;;;;;;;;;;5099087;28;20479;-61
2023/05/30 06:30:50;;;;;;;16.90;6.73;;;;;;;;;;5098601;28;21050;-59
2023/05/30 06:33:16;;;;;;;11.53;5.50;;;;;;;;;;5112402;28;20457;-59
2023/05/30 06:35:42;;;;;;;15.73;7.13;;;;;;;;;;5108976;28;20513;-62
2023/05/30 06:38:10;;;;;;;14.90;6.70;;;;;;;;;;5104107;28;20471;-61
2023/05/30 06:40:36;;;;;;;17.23;7.00;;;;;;;;;;5112508;28;20474;-61
2023/05/30 06:43:03;;;;;;;18.37;7.17;;;;;;;;;;5116990;28;20509;-61
2023/05/30 06:45:30;;;;;;;11.83;6.70;;;;;;;;;;5103657;28;20474;-60
2023/05/30 06:47:56;;;;;;;14.43;6.83;;;;;;;;;;5101265;28;20496;-60
2023/05/30 06:50:23;;;;;;;13.63;6.77;;;;;;;;;;5104385;28;20454;-61
2023/05/30 06:52:49;;;;;;;18.70;6.97;;;;;;;;;;5103003;28;20518;-62
2023/05/30 06:55:17;;;;;;;12.73;5.40;;;;;;;;;;5105593;28;20538;-61
2023/05/30 06:57:43;;;;;;;15.90;6.53;;;;;;;;;;5111858;28;20469;-63
2023/05/30 07:00:10;;;;;;;16.10;6.27;;;;;;;;;;5102736;28;20459;-61
2023/05/30 07:02:37;;;;;;;12.80;7.77;;;;;;;;;;5105792;28;20501;-60
2023/05/30 07:05:03;;;;;;;12.43;7.33;;;;;;;;;;5107613;28;20562;-60
2023/05/30 07:07:29;;;;;;;15.80;7.13;;;;;;;;;;5111782;28;20517;-61
2023/05/30 07:09:56;;;;;;;14.60;8.53;;;;;;;;;;5102034;28;20539;-60
2023/05/30 07:12:24;;;;;;;15.43;6.90;;;;;;;;;;5117813;28;20488;-62
2023/05/30 07:14:50;;;;;;;16.43;7.90;;;;;;;;;;5110489;28;20866;-60
2023/05/30 07:17:16;;;;;;;13.40;7.00;;;;;;;;;;5101615;28;20530;-60
2023/05/30 07:19:43;;;;;;;15.57;7.03;;;;;;;;;;5101456;28;20518;-62
2023/05/30 07:22:09;;;;;;;13.50;6.67;;;;;;;;;;5106604;28;20861;-64
2023/05/30 07:24:36;;;;;;;13.77;6.40;;;;;;;;;;5102674;28;20502;-61
2023/05/30 07:27:02;;;;;;;13.23;7.10;;;;;;;;;;5102057;28;20502;-60
2023/05/30 07:29:30;;;;;;;14.37;5.90;;;;;;;;;;5101621;28;20542;-61
2023/05/30 07:31:56;;;;;;;11.00;5.77;;;;;;;;;;5106595;28;20560;-61
2023/05/30 07:34:23;;;;;;;11.70;6.07;;;;;;;;;;5104472;28;20990;-58
2023/05/30 07:36:50;;;;;;;10.80;6.17;;;;;;;;;;5109820;28;20484;-58
2023/05/30 07:39:16;;;;;;;10.50;5.90;;;;;;;;;;5105928;28;20467;-59
2023/05/30 07:41:42;;;;;;;14.10;6.63;;;;;;;;;;5109379;28;20473;-59
2023/05/30 07:44:09;;;;;;;11.90;5.60;;;;;;;;;;5105997;28;20661;-59
2023/05/30 07:46:36;;;;;;;14.57;6.23;;;;;;;;;;5103250;28;20478;-59
2023/05/30 07:49:03;;;;;;;10.40;6.27;;;;;;;;;;5105320;28;20519;-60
2023/05/30 07:51:30;;;;;;;9.37;5.33;;;;;;;;;;5102325;28;20495;-61
2023/05/30 07:53:56;;;;;;;13.10;5.53;;;;;;;;;;5111894;28;20536;-60
2023/05/30 07:56:23;;;;;;;10.20;5.57;;;;;;;;;;5101292;28;20561;-63
2023/05/30 07:58:49;;;;;;;11.67;5.73;;;;;;;;;;5106983;28;20478;-61
2023/05/30 08:01:16;;;;;;;13.53;5.93;;;;;;;;;;5100711;28;20473;-61
2023/05/30 08:03:43;;;;;;;9.80;5.33;;;;;;;;;;5105688;28;20484;-60
2023/05/30 08:06:10;;;;;;;8.93;5.40;;;;;;;;;;5110656;28;20587;-61
2023/05/30 08:08:36;;;;;;;10.97;6.27;;;;;;;;;;5106096;28;20873;-61
2023/05/30 08:11:03;;;;;;;11.40;5.67;;;;;;;;;;5099433;28;20527;-62
2023/05/30 08:13:29;;;;;;;15.00;5.80;;;;;;;;;;5101539;28;20469;-62
2023/05/30 08:15:56;;;;;;;13.23;5.60;;;;;;;;;;5102444;28;20467;-61
2023/05/30 08:18:23;;;;;;;10.80;5.80;;;;;;;;;;5105757;28;20485;-61
2023/05/30 08:20:51;;;;;;;11.17;5.80;;;;;;;;;;5103935;28;20541;-61
2023/05/30 08:23:18;;;;;;;7.50;5.50;;;;;;;;;;5100501;28;20455;-61
2023/05/30 08:25:46;;;;;;;15.77;5.00;;;;;;;;;;5101211;28;20502;-62
2023/05/30 08:28:12;;;;;;;10.30;5.93;;;;;;;;;;5102789;28;20450;-62
2023/05/30 08:30:40;;;;;;;9.77;5.60;;;;;;;;;;5099756;28;20537;-61
2023/05/30 08:33:07;;;;;;;10.43;5.77;;;;;;;;;;5104240;28;20510;-58
2023/05/30 08:35:34;;;;;;;9.80;5.47;;;;;;;;;;5101892;28;20474;-59
2023/05/30 08:38:02;;;;;;;14.30;5.67;;;;;;;;;;5102443;28;20883;-59
2023/05/30 08:40:28;;;;;;;10.40;5.50;;;;;;;;;;5099703;28;20538;-60
2023/05/30 08:42:54;;;;;;;8.20;6.10;;;;;;;;;;5101518;28;21275;-59
2023/05/30 08:45:21;;;;;;;10.47;5.87;;;;;;;;;;5107436;28;20489;-60
2023/05/30 08:47:47;;;;;;;8.93;5.50;;;;;;;;;;5105027;28;20482;-60
2023/05/30 08:50:17;;;;;;;11.73;4.93;;;;;;;;;;5101561;28;20958;-60
2023/05/30 08:52:45;;;;;;;9.67;5.03;;;;;;;;;;5099945;28;20530;-60
2023/05/30 08:55:13;;;;;;;12.73;5.53;;;;;;;;;;5098162;28;20513;-60
2023/05/30 08:57:42;;;;;;;11.03;5.40;;;;;;;;;;5101188;28;20447;-61
2023/05/30 09:00:11;;;;;;;11.90;4.87;;;;;;;;;;5100126;28;20450;-59
2023/05/30 09:02:38;;;;;;;12.43;5.37;;;;;;;;;;5099589;28;20447;-60
2023/05/30 09:05:06;;;;;;;9.10;5.10;;;;;;;;;;5104562;28;20506;-60
2023/05/30 09:07:32;;;;;;;7.40;4.40;;;;;;;;;;5101219;28;20482;-60
2023/05/30 09:09:59;;;;;;;8.90;5.47;;;;;;;;;;5098196;28;20702;-60
2023/05/30 09:12:27;;;;;;;10.20;5.10;;;;;;;;;;5103299;28;20478;-59
2023/05/30 09:14:53;;;;;;;9.80;5.67;;;;;;;;;;5103350;28;20458;-59
2023/05/30 09:17:20;;;;;;;7.93;4.50;;;;;;;;;;5096294;28;20513;-60
2023/05/30 09:19:46;;;;;;;7.30;5.57;;;;;;;;;;5100671;28;20542;-60
2023/05/30 09:22:13;;;;;;;13.03;5.90;;;;;;;;;;5106371;28;20570;-60
2023/05/30 09:24:57;;;;;;;6.87;5.53;;;;;;;;;;5090670;28;20491;-60
2023/05/30 09:27:24;;;;;;;10.13;5.30;;;;;;;;;;5102442;28;20665;-60
2023/05/30 09:29:51;;;;;;;7.93;5.77;;;;;;;;;;5100158;28;20463;-60
2023/05/30 09:32:18;;;;;;;8.53;5.20;;;;;;;;;;5098521;28;21043;-60
2023/05/30 09:34:52;;;;;;;10.27;5.60;;;;;;;;;;5092013;28;21098;-59
2023/05/30 09:37:19;;;;;;;8.97;5.87;;;;;;;;;;5101694;28;20713;-61
2023/05/30 09:40:03;;;;;;;10.53;5.80;;;;;;;;;;5101835;28;20541;-61
2023/05/30 09:42:38;;;;;;;8.60;4.90;;;;;;;;;;5097403;28;21066;-61
2023/05/30 09:45:08;;;;;;;8.33;5.10;;;;;;;;;;5101289;28;20521;-59
2023/05/30 09:47:42;;;;;;;8.50;5.20;;;;;;;;;;5096062;28;20471;-59
2023/05/30 09:50:09;;;;;;;8.07;5.77;;;;;;;;;;5102218;28;20490;-59
2023/05/30 09:52:35;;;;;;;9.13;6.03;;;;;;;;;;5101518;28;20483;-60
2023/05/30 09:55:05;;;;;;;9.50;5.80;;;;;;;;;;5102110;28;20513;-59
2023/05/30 09:57:32;;;;;;;10.33;6.23;;;;;;;;;;5101831;28;20544;-61
2023/05/30 09:59:58;;;;;;;10.00;6.10;;;;;;;;;;5099646;28;20447;-60
2023/05/30 10:02:26;;;;;;;5.67;5.07;;;;;;;;;;5110063;28;20944;-65
2023/05/30 10:04:53;;;;;;;11.20;5.67;;;;;;;;;;5106292;28;20755;-63
2023/05/30 10:07:20;;;;;;;10.20;5.87;;;;;;;;;;5101446;28;20562;-63
2023/05/30 10:09:49;;;;;;;12.07;5.87;;;;;;;;;;5111071;28;20462;-66
2023/05/30 10:12:15;;;;;;;13.63;7.00;;;;;;;;;;5101753;28;20510;-63
2023/05/30 10:14:41;;;;;;;12.77;5.57;;;;;;;;;;5104943;28;20457;-63
2023/05/30 10:17:09;;;;;;;12.23;5.70;;;;;;;;;;5105699;28;20477;-61
2023/05/30 10:19:40;;;;;;;10.60;5.90;;;;;;;;;;5107687;28;20518;-61
2023/05/30 10:22:07;;;;;;;9.57;4.93;;;;;;;;;;5100667;28;20482;-63
2023/05/30 10:24:34;;;;;;;6.00;4.37;;;;;;;;;;5104216;28;20490;-62
2023/05/30 10:27:01;;;;;;;7.30;4.60;;;;;;;;;;5106170;28;20581;-61
2023/05/30 10:29:32;;;;;;;8.53;4.90;;;;;;;;;;5104025;28;20447;-61
2023/05/30 10:32:00;;;;;;;12.77;5.30;;;;;;;;;;5106286;28;20565;-61
2023/05/30 10:34:34;;;;;;;8.80;5.00;;;;;;;;;;5104047;28;20447;-64
2023/05/30 10:37:03;;;;;;;11.60;5.50;;;;;;;;;;5102509;28;21089;-62
2023/05/30 10:39:31;;;;;;;12.90;5.27;;;;;;;;;;5102004;28;20550;-61
2023/05/30 10:42:01;;;;;;;8.00;5.93;;;;;;;;;;5106129;28;20549;-61
2023/05/30 10:44:32;;;;;;;10.23;5.93;;;;;;;;;;5102934;28;20435;-63
2023/05/30 10:47:03;;;;;;;9.23;5.40;;;;;;;;;;5103730;28;20497;-60
2023/05/30 10:49:31;;;;;;;14.67;8.10;;;;;;;;;;5104210;28;20469;-60
2023/05/30 10:52:02;;;;;;;10.17;5.10;;;;;;;;;;5101272;28;20475;-59
2023/05/30 10:54:30;;;;;;;10.83;5.70;;;;;;;;;;5094894;28;20492;-59
2023/05/30 10:56:56;;;;;;;9.30;5.17;;;;;;;;;;5106135;28;20506;-60
2023/05/30 10:59:23;;;;;;;7.50;4.70;;;;;;;;;;5102117;28;20487;-60
2023/05/30 11:02:00;;;;;;;9.70;5.20;;;;;;;;;;5106082;28;20474;-60
2023/05/30 11:04:30;;;;;;;10.90;5.10;;;;;;;;;;5105322;28;20450;-60
2023/05/30 11:07:06;;;;;;;7.90;4.23;;;;;;;;;;5106047;28;20512;-61
2023/05/30 11:09:39;;;;;;;8.00;5.07;;;;;;;;;;5094803;28;20471;-59
2023/05/30 11:12:06;;;;;;;9.93;4.37;;;;;;;;;;5100116;28;21078;-60
2023/05/30 11:14:34;;;;;;;8.23;4.30;;;;;;;;;;5104541;28;20450;-60
2023/05/30 11:17:01;;;;;;;6.27;4.10;;;;;;;;;;5101620;28;20483;-60
2023/05/30 11:19:28;;;;;;;8.50;4.30;;;;;;;;;;5102367;28;20451;-60
2023/05/30 11:22:04;;;;;;;7.23;4.27;;;;;;;;;;5105746;28;20506;-59
2023/05/30 11:24:31;;;;;;;8.37;4.43;;;;;;;;;;5101453;28;20473;-60
2023/05/30 11:27:01;;;;;;;7.80;3.63;;;;;;;;;;5101427;28;21031;-60
2023/05/30 11:29:31;;;;;;;6.97;3.70;;;;;;;;;;5106860;28;20461;-60
2023/05/30 11:31:58;;;;;;;6.03;3.77;;;;;;;;;;5106048;28;20518;-60
2023/05/30 11:34:24;;;;;;;7.07;3.70;;;;;;;;;;5096155;28;20569;-60
2023/05/30 11:36:50;;;;;;;5.60;3.60;;;;;;;;;;5103841;28;20522;-60
2023/05/30 11:39:19;;;;;;;3.80;2.90;;;;;;;;;;5101415;28;20489;-60
2023/05/30 11:41:45;;;;;;;5.60;3.37;;;;;;;;;;5100966;28;20510;-60
2023/05/30 11:44:13;;;;;;;4.80;3.43;;;;;;;;;;5100847;28;20451;-60
2023/05/30 11:46:40;;;;;;;4.77;3.57;;;;;;;;;;5102146;28;20530;-59
2023/05/30 11:49:07;;;;;;;7.67;3.33;;;;;;;;;;5103569;28;20539;-59
2023/05/30 11:51:33;;;;;;;6.93;3.50;;;;;;;;;;5096463;28;20514;-60
2023/05/30 11:54:01;;;;;;;6.27;3.43;;;;;;;;;;5101490;28;20843;-60
2023/05/30 11:56:29;;;;;;;6.10;3.30;;;;;;;;;;5103751;28;20482;-60
2023/05/30 11:58:55;;;;;;;4.37;3.33;;;;;;;;;;5102938;28;20486;-62
2023/05/30 12:01:23;;;;;;;6.70;4.27;;;;;;;;;;5102801;28;20478;-60
2023/05/30 12:03:50;;;;;;;4.80;3.10;;;;;;;;;;5104941;28;20514;-60
2023/05/30 12:06:16;;;;;;;6.30;3.50;;;;;;;;;;5101652;28;20503;-61
2023/05/30 12:08:43;;;;;;;5.33;4.10;;;;;;;;;;5100362;28;20458;-64
2023/05/30 12:11:10;;;;;;;7.13;3.57;;;;;;;;;;5101466;28;20551;-60
2023/05/30 12:13:37;;;;;;;6.43;3.70;;;;;;;;;;5107317;28;20817;-61
2023/05/30 12:16:03;;;;;;;6.40;3.77;;;;;;;;;;5100711;28;20588;-61
2023/05/30 12:18:32;;;;;;;6.47;4.13;;;;;;;;;;5103129;28;20935;-61
2023/05/30 12:21:00;;;;;;;9.03;4.43;;;;;;;;;;5101552;28;20523;-60
2023/05/30 12:23:26;;;;;;;7.60;3.50;;;;;;;;;;5103812;28;20467;-61
2023/05/30 12:25:54;;;;;;;4.70;3.70;;;;;;;;;;5099413;28;20494;-61
2023/05/30 12:28:20;;;;;;;8.10;4.03;;;;;;;;;;5099383;28;20455;-61
2023/05/30 12:30:46;;;;;;;9.00;3.93;;;;;;;;;;5099545;28;20478;-61
2023/05/30 12:33:13;;;;;;;5.90;4.40;;;;;;;;;;5108727;28;20518;-61
2023/05/30 12:35:41;;;;;;;4.70;3.40;;;;;;;;;;5103418;28;20843;-60
2023/05/30 12:38:08;;;;;;;5.90;4.40;;;;;;;;;;5101294;28;20439;-60
2023/05/30 12:40:34;;;;;;;5.97;3.90;;;;;;;;;;5093993;28;20562;-60
2023/05/30 12:43:01;;;;;;;5.20;3.80;;;;;;;;;;5098509;28;20454;-60
2023/05/30 12:45:27;;;;;;;9.10;4.23;;;;;;;;;;5106691;28;20493;-61
2023/05/30 12:47:53;;;;;;;4.67;3.50;;;;;;;;;;5098740;28;20530;-60
2023/05/30 12:50:20;;;;;;;4.63;3.20;;;;;;;;;;5102160;28;20517;-61
2023/05/30 12:52:48;;;;;;;5.60;4.53;;;;;;;;;;5101792;28;21096;-60
2023/05/30 12:55:14;;;;;;;5.70;3.77;;;;;;;;;;5097197;28;20530;-60
2023/05/30 12:57:41;;;;;;;9.40;3.67;;;;;;;;;;5099770;28;20471;-60
2023/05/30 13:00:09;;;;;;;6.57;3.77;;;;;;;;;;5099249;28;20470;-60
2023/05/30 13:02:36;;;;;;;4.97;4.30;;;;;;;;;;5110762;28;20449;-61
2023/05/30 13:05:03;;;;;;;8.93;4.70;;;;;;;;;;5105608;28;20947;-60
2023/05/30 13:07:30;;;;;;;8.23;4.27;;;;;;;;;;5101654;28;20475;-61
2023/05/30 13:09:57;;;;;;;6.07;3.80;;;;;;;;;;5097440;28;20475;-61
2023/05/30 13:12:24;;;;;;;4.83;3.63;;;;;;;;;;5099270;28;20613;-61
2023/05/30 13:14:50;;;;;;;8.00;4.80;;;;;;;;;;5099312;28;20514;-61
2023/05/30 13:17:17;;;;;;;4.80;3.70;;;;;;;;;;5099536;28;20479;-61
2023/05/30 13:19:43;;;;;;;6.63;3.90;;;;;;;;;;5099483;28;20467;-62
2023/05/30 13:22:12;;;;;;;4.80;3.60;;;;;;;;;;5098554;28;20511;-61
2023/05/30 13:24:38;;;;;;;7.70;4.20;;;;;;;;;;5098520;28;20451;-61
2023/05/30 13:27:07;;;;;;;5.73;4.33;;;;;;;;;;5099196;28;20550;-61
2023/05/30 13:29:33;;;;;;;14.37;5.00;;;;;;;;;;5099165;28;20971;-60
2023/05/30 13:32:00;;;;;;;7.63;3.93;;;;;;;;;;5098146;28;20515;-60
2023/05/30 13:34:26;;;;;;;6.77;3.83;;;;;;;;;;5099813;28;20483;-61
2023/05/30 13:36:53;;;;;;;5.50;4.23;;;;;;;;;;5093798;28;20543;-61
2023/05/30 13:39:19;;;;;;;5.67;4.00;;;;;;;;;;5099159;28;20509;-62
2023/05/30 13:43:25;;;;;;;4.13;3.60;;;;;;;;;;5151895;27;20570;-60
2023/05/30 13:45:51;;;;;;;5.60;3.73;;;;;;;;;;5140732;27;21149;-60
2023/05/30 13:48:20;;;;;;;5.40;3.57;;;;;;;;;;5126441;28;20439;-60
2023/05/30 13:50:46;;;;;;;6.60;4.70;;;;;;;;;;5126295;27;20481;-60
2023/05/30 13:53:13;;;;;;;5.73;3.30;;;;;;;;;;5128375;28;20553;-58
2023/05/30 13:55:39;;;;;;;8.13;4.30;;;;;;;;;;5116634;27;20495;-59
2023/05/30 13:58:06;;;;;;;8.10;3.73;;;;;;;;;;5133265;28;20516;-63
2023/05/30 14:00:33;;;;;;;5.80;4.20;;;;;;;;;;5119449;28;20696;-63
2023/05/30 14:03:00;;;;;;;4.63;3.60;;;;;;;;;;5123631;28;20521;-64
2023/05/30 14:05:27;;;;;;;6.00;4.63;;;;;;;;;;5117036;27;20480;-60
2023/05/30 14:07:53;;;;;;;5.87;4.20;;;;;;;;;;5096273;28;20505;-58
2023/05/30 14:10:20;;;;;;;5.53;3.30;;;;;;;;;;5095187;27;20542;-58
2023/05/30 14:17:28;;;;;;;6.07;3.90;;;;;;;;;;5138609;27;20579;-64
2023/05/30 14:19:55;;;;;;;6.77;4.30;;;;;;;;;;5124022;27;20481;-58
2023/05/30 14:22:21;;;;;;;7.03;3.93;;;;;;;;;;5113549;27;20569;-58
2023/05/30 14:24:48;;;;;;;6.00;4.60;;;;;;;;;;5106041;28;20459;-58
2023/05/30 14:27:14;;;;;;;4.67;4.03;;;;;;;;;;5098384;28;20511;-58
2023/05/30 14:29:41;;;;;;;6.43;4.47;;;;;;;;;;5099231;28;20447;-59
2023/05/30 14:32:08;;;;;;;6.30;4.23;;;;;;;;;;5093700;28;20928;-58
2023/05/30 14:34:35;;;;;;;7.27;4.67;;;;;;;;;;5096166;28;20487;-58
2023/05/30 14:37:02;;;;;;;5.77;5.07;;;;;;;;;;5095594;28;20498;-59
2023/05/30 14:39:29;;;;;;;8.30;4.20;;;;;;;;;;5096339;28;20856;-59
2023/05/30 14:41:55;;;;;;;8.50;4.60;;;;;;;;;;5098425;28;20467;-58